createdAt,value
2022-09-01T00:00:02.443Z,62.96
2022-09-01T00:02:31.643Z,63.10
2022-09-01T00:04:59.911Z,62.89
2022-09-01T00:07:30.201Z,62.85
2022-09-01T00:10:00.215Z,63.49
2022-09-01T00:12:29.086Z,63.35
2022-09-01T00:14:58.988Z,63.30
2022-09-01T00:17:27.793Z,63.33
2022-09-01T00:19:55.969Z,63.41
2022-09-01T00:22:23.963Z,63.65
2022-09-01T00:24:51.989Z,63.64
2022-09-01T00:27:21.369Z,63.73
2022-09-01T00:29:56.523Z,63.64
2022-09-01T00:32:25.352Z,63.63
2022-09-01T00:34:54.001Z,63.64
2022-09-01T00:37:22.091Z,63.41
2022-09-01T00:39:50.040Z,63.47
2022-09-01T00:42:18.335Z,63.44
2022-09-01T00:44:47.736Z,63.40
2022-09-01T00:47:17.867Z,63.78
2022-09-01T00:49:49.936Z,63.53
2022-09-01T00:52:23.220Z,63.64
2022-09-01T00:54:56.422Z,62.97
2022-09-01T00:57:25.196Z,63.38
2022-09-01T00:59:58.278Z,63.42
2022-09-01T01:02:26.716Z,63.83
2022-09-01T01:05:03.741Z,63.81
2022-09-01T01:07:49.236Z,63.93
2022-09-01T01:10:20.270Z,63.92
2022-09-01T01:12:51.888Z,63.94
2022-09-01T01:15:21.739Z,64.17
2022-09-01T01:17:49.622Z,64.23
2022-09-01T01:20:37.521Z,64.73
2022-09-01T01:23:16.673Z,64.79
2022-09-01T01:25:50.396Z,64.93
2022-09-01T01:28:22.251Z,64.82
2022-09-01T01:30:57.284Z,64.57
2022-09-01T01:33:29.823Z,64.84
2022-09-01T01:35:58.234Z,64.54
2022-09-01T01:38:27.529Z,64.47
2022-09-01T01:40:57.027Z,64.71
2022-09-01T01:43:26.403Z,64.64
2022-09-01T01:45:59.176Z,64.73
2022-09-01T01:48:28.224Z,65.00
2022-09-01T01:51:00.783Z,65.22
2022-09-01T01:53:29.575Z,65.69
2022-09-01T01:56:01.098Z,66.05
2022-09-01T01:58:30.808Z,65.95
2022-09-01T02:00:59.311Z,66.06
2022-09-01T02:03:30.765Z,66.70
2022-09-01T02:06:07.757Z,66.67
2022-09-01T02:08:36.811Z,66.69
2022-09-01T02:11:07.950Z,66.49
2022-09-01T02:13:36.026Z,66.10
2022-09-01T02:16:07.562Z,66.03
2022-09-01T02:18:37.951Z,65.93
2022-09-01T02:21:15.048Z,66.23
2022-09-01T02:23:44.520Z,66.48
2022-09-01T02:26:16.577Z,66.68
2022-09-01T02:28:50.965Z,66.57
2022-09-01T02:31:22.965Z,66.20
2022-09-01T02:33:50.899Z,66.08
2022-09-01T02:38:53.639Z,66.30
2022-09-01T02:41:30.026Z,66.55
2022-09-01T02:44:02.288Z,66.83
2022-09-01T02:46:31.076Z,66.70
2022-09-01T02:49:00.499Z,67.06
2022-09-01T02:51:28.785Z,67.37
2022-09-01T02:53:56.648Z,67.60
2022-09-01T02:56:27.256Z,67.81
2022-09-01T02:58:55.551Z,67.98
2022-09-01T03:01:26.186Z,67.90
2022-09-01T03:03:56.364Z,67.56
2022-09-01T03:06:26.011Z,67.85
2022-09-01T03:09:00.329Z,68.39
2022-09-01T03:11:31.688Z,68.13
2022-09-01T03:14:00.220Z,68.11
2022-09-01T03:16:30.322Z,68.13
2022-09-01T03:18:59.164Z,67.97
2022-09-01T03:21:32.027Z,68.26
2022-09-01T03:24:02.144Z,68.57
2022-09-01T03:26:32.615Z,68.26
2022-09-01T03:29:00.561Z,68.37
2022-09-01T03:31:30.990Z,68.46
2022-09-01T03:34:00.638Z,68.48
2022-09-01T03:36:30.058Z,68.83
2022-09-01T03:38:58.687Z,69.06
2022-09-01T03:41:29.481Z,69.14
2022-09-01T03:44:03.423Z,68.92
2022-09-01T03:46:36.296Z,69.01
2022-09-01T03:49:07.557Z,68.83
2022-09-01T03:51:39.478Z,68.82
2022-09-01T03:54:07.918Z,68.63
2022-09-01T03:56:36.430Z,68.94
2022-09-01T03:59:07.609Z,69.09
2022-09-01T04:01:41.543Z,69.05
2022-09-01T04:04:09.524Z,68.87
2022-09-01T04:06:38.515Z,69.18
2022-09-01T04:09:06.586Z,68.91
2022-09-01T04:11:35.104Z,68.74
2022-09-01T04:14:03.235Z,68.79
2022-09-01T04:16:51.732Z,68.84
2022-09-01T04:19:25.886Z,69.35
2022-09-01T04:21:56.330Z,69.75
2022-09-01T04:24:28.230Z,69.87
2022-09-01T04:26:58.740Z,69.91
2022-09-01T04:29:28.159Z,69.85
2022-09-01T04:32:02.262Z,69.68
2022-09-01T04:34:37.487Z,69.79
2022-09-01T04:37:10.142Z,69.88
2022-09-01T04:39:39.240Z,69.66
2022-09-01T04:42:09.124Z,69.50
2022-09-01T04:44:37.949Z,69.18
2022-09-01T04:47:11.489Z,69.54
2022-09-01T04:49:39.433Z,69.42
2022-09-01T04:52:07.425Z,69.65
2022-09-01T04:54:37.507Z,69.55
2022-09-01T04:57:07.028Z,69.66
2022-09-01T04:59:35.815Z,69.70
2022-09-01T05:02:07.759Z,69.66
2022-09-01T05:04:46.345Z,69.60
2022-09-01T05:07:17.676Z,69.05
2022-09-01T05:09:45.884Z,68.90
2022-09-01T05:12:16.854Z,68.32
2022-09-01T05:14:48.634Z,68.46
2022-09-01T05:17:17.624Z,67.88
2022-09-01T05:19:51.193Z,67.59
2022-09-01T05:22:21.988Z,67.48
2022-09-01T05:24:51.418Z,67.23
2022-09-01T05:27:23.400Z,66.72
2022-09-01T05:29:51.290Z,66.60
2022-09-01T05:32:20.121Z,66.94
2022-09-01T05:34:51.834Z,67.46
2022-09-01T05:37:21.606Z,67.18
2022-09-01T05:39:50.331Z,66.98
2022-09-01T05:42:18.348Z,67.31
2022-09-01T05:44:47.932Z,67.08
2022-09-01T05:47:21.835Z,66.71
2022-09-01T05:49:53.501Z,66.40
2022-09-01T05:52:26.466Z,66.44
2022-09-01T05:54:55.847Z,65.86
2022-09-01T05:57:34.237Z,65.29
2022-09-01T06:00:02.745Z,64.32
2022-09-01T06:02:33.865Z,64.14
2022-09-01T06:05:03.202Z,63.65
2022-09-01T06:07:31.123Z,63.09
2022-09-01T06:10:29.669Z,63.21
2022-09-01T06:12:58.980Z,63.12
2022-09-01T06:15:29.471Z,62.07
2022-09-01T06:17:57.497Z,62.69
2022-09-01T06:20:27.503Z,62.20
2022-09-01T06:22:56.015Z,62.68
2022-09-01T06:25:26.442Z,62.59
2022-09-01T06:27:54.428Z,61.99
2022-09-01T06:30:24.428Z,61.63
2022-09-01T06:32:53.192Z,61.65
2022-09-01T06:35:22.148Z,61.08
2022-09-01T06:37:51.646Z,60.82
2022-09-01T06:40:19.485Z,61.19
2022-09-01T06:42:48.955Z,60.44
2022-09-01T06:45:18.857Z,60.08
2022-09-01T06:47:51.015Z,59.46
2022-09-01T06:55:59.722Z,59.25
2022-09-01T06:58:27.677Z,58.50
2022-09-01T07:00:55.695Z,58.60
2022-09-01T07:03:25.059Z,57.95
2022-09-01T07:06:09.561Z,58.07
2022-09-01T07:14:22.207Z,57.28
2022-09-01T07:16:53.344Z,57.76
2022-09-01T07:19:21.607Z,57.58
2022-09-01T07:24:40.258Z,57.16
2022-09-01T07:27:09.286Z,56.80
2022-09-01T07:29:39.348Z,56.37
2022-09-01T07:35:00.170Z,56.99
2022-09-01T07:43:17.727Z,55.70
2022-09-01T07:45:58.340Z,55.81
2022-09-01T07:54:07.130Z,54.11
2022-09-01T07:56:40.033Z,53.06
2022-09-01T07:59:09.528Z,52.39
2022-09-01T08:01:43.826Z,52.34
2022-09-01T08:04:12.148Z,52.68
2022-09-01T08:06:40.976Z,52.91
2022-09-01T08:09:11.860Z,52.72
2022-09-01T08:12:03.168Z,52.10
2022-09-01T08:14:35.035Z,53.14
2022-09-01T08:17:34.171Z,52.55
2022-09-01T08:22:23.335Z,51.37
2022-09-01T08:24:51.371Z,51.52
2022-09-01T08:27:20.887Z,51.17
2022-09-01T08:29:48.869Z,51.84
2022-09-01T08:32:16.836Z,51.90
2022-09-01T08:34:44.793Z,52.76
2022-09-01T08:37:13.173Z,52.41
2022-09-01T08:39:42.452Z,52.31
2022-09-01T08:42:20.762Z,51.66
2022-09-01T08:44:59.133Z,50.71
2022-09-01T08:47:35.559Z,51.36
2022-09-01T08:50:13.158Z,51.99
2022-09-01T08:52:44.910Z,50.29
2022-09-01T08:55:17.441Z,50.51
2022-09-01T08:57:50.103Z,49.72
2022-09-01T09:00:23.385Z,49.54
2022-09-01T09:03:06.163Z,49.84
2022-09-01T09:05:48.602Z,49.74
2022-09-01T09:09:03.580Z,49.15
2022-09-01T09:11:48.444Z,49.52
2022-09-01T09:14:29.274Z,49.17
2022-09-01T09:17:01.848Z,49.07
2022-09-01T09:19:32.388Z,49.27
2022-09-01T09:22:02.662Z,49.26
2022-09-01T09:24:47.588Z,49.76
2022-09-01T09:27:19.869Z,49.62
2022-09-01T09:29:51.030Z,50.09
2022-09-01T09:32:28.112Z,49.91
2022-09-01T09:35:19.938Z,49.69
2022-09-01T09:37:48.275Z,49.56
2022-09-01T09:40:18.933Z,50.13
2022-09-01T09:43:04.426Z,49.95
2022-09-01T09:45:34.752Z,50.41
2022-09-01T09:48:07.882Z,50.09
2022-09-01T09:50:40.834Z,50.60
2022-09-01T09:53:19.549Z,49.83
2022-09-01T09:55:56.222Z,50.03
2022-09-01T09:58:28.130Z,49.30
2022-09-01T10:01:03.732Z,48.59
2022-09-01T10:03:43.058Z,48.22
2022-09-01T10:06:17.662Z,48.30
2022-09-01T10:08:53.185Z,47.13
2022-09-01T10:11:35.354Z,47.44
2022-09-01T10:14:07.106Z,47.49
2022-09-01T10:16:39.828Z,48.11
2022-09-01T10:19:13.894Z,47.79
2022-09-01T10:21:46.238Z,47.48
2022-09-01T10:24:21.555Z,47.31
2022-09-01T10:26:54.546Z,47.32
2022-09-01T10:29:27.404Z,47.73
2022-09-01T10:32:28.021Z,47.82
2022-09-01T10:34:47.436Z,47.91
2022-09-01T10:37:16.298Z,46.94
2022-09-01T10:40:21.459Z,46.64
2022-09-01T10:42:57.340Z,46.48
2022-09-01T10:45:34.090Z,46.55
2022-09-01T10:48:46.269Z,45.92
2022-09-01T10:51:51.506Z,45.56
2022-09-01T10:54:52.738Z,45.71
2022-09-01T10:57:42.376Z,44.50
2022-09-01T11:04:04.163Z,42.83
2022-09-01T11:06:34.712Z,41.68
2022-09-01T11:09:07.662Z,42.43
2022-09-01T11:11:42.559Z,42.37
2022-09-01T11:14:19.849Z,41.52
2022-09-01T11:17:15.552Z,42.03
2022-09-01T11:19:46.703Z,40.71
2022-09-01T11:22:38.070Z,40.43
2022-09-01T11:25:15.111Z,39.54
2022-09-01T11:28:04.139Z,39.53
2022-09-01T11:30:41.760Z,39.31
2022-09-01T11:33:20.855Z,39.41
2022-09-01T11:35:49.103Z,39.57
2022-09-01T11:38:20.630Z,39.70
2022-09-01T11:40:57.144Z,39.87
2022-09-01T11:43:27.433Z,40.67
2022-09-01T11:46:08.158Z,40.57
2022-09-01T11:48:37.535Z,40.36
2022-09-01T11:51:05.842Z,39.83
2022-09-01T11:53:33.838Z,40.08
2022-09-01T11:56:18.145Z,40.07
2022-09-01T11:58:46.091Z,39.53
2022-09-01T12:01:17.254Z,39.83
2022-09-01T12:03:47.019Z,39.98
2022-09-01T12:06:23.469Z,39.65
2022-09-01T12:08:58.174Z,38.60
2022-09-01T12:11:31.341Z,37.83
2022-09-01T12:14:02.497Z,38.69
2022-09-01T12:16:36.755Z,38.79
2022-09-01T12:19:06.588Z,38.06
2022-09-01T12:21:38.279Z,37.99
2022-09-01T12:24:17.013Z,38.00
2022-09-01T12:26:47.957Z,37.84
2022-09-01T12:29:16.944Z,38.44
2022-09-01T12:31:47.089Z,38.22
2022-09-01T12:34:29.506Z,38.76
2022-09-01T12:37:09.326Z,39.06
2022-09-01T12:39:40.082Z,38.44
2022-09-01T12:42:25.307Z,38.13
2022-09-01T12:44:56.073Z,38.32
2022-09-01T12:47:50.940Z,37.51
2022-09-01T12:50:44.122Z,36.84
2022-09-01T12:53:20.477Z,36.92
2022-09-01T12:56:17.738Z,37.47
2022-09-01T12:58:54.669Z,37.75
2022-09-01T13:01:29.553Z,37.39
2022-09-01T13:04:16.560Z,37.76
2022-09-01T13:06:44.415Z,37.18
2022-09-01T13:09:12.329Z,36.60
2022-09-01T13:14:31.627Z,36.56
2022-09-01T13:16:59.896Z,36.43
2022-09-01T13:19:30.230Z,36.03
2022-09-01T13:21:58.693Z,36.03
2022-09-01T13:24:30.253Z,35.97
2022-09-01T13:29:48.965Z,36.15
2022-09-01T13:32:20.493Z,35.60
2022-09-01T13:34:54.739Z,35.25
2022-09-01T13:37:24.488Z,34.60
2022-09-01T13:39:52.695Z,33.81
2022-09-01T13:42:21.211Z,33.02
2022-09-01T13:44:54.119Z,33.49
2022-09-01T13:47:31.840Z,33.86
2022-09-01T13:50:10.778Z,33.50
2022-09-01T13:52:41.240Z,33.79
2022-09-01T13:55:11.825Z,33.77
2022-09-01T13:57:39.984Z,33.38
2022-09-01T14:00:12.313Z,32.84
2022-09-01T14:02:42.998Z,32.31
2022-09-01T14:05:11.609Z,32.45
2022-09-01T14:07:39.594Z,32.67
2022-09-01T14:10:08.899Z,32.85
2022-09-01T14:12:37.469Z,33.43
2022-09-01T14:15:17.026Z,33.66
2022-09-01T14:17:49.738Z,32.20
2022-09-01T14:20:21.124Z,32.07
2022-09-01T14:22:50.844Z,33.03
2022-09-01T14:25:20.158Z,32.83
2022-09-01T14:27:49.658Z,33.09
2022-09-01T14:30:20.987Z,33.79
2022-09-01T14:32:54.257Z,34.09
2022-09-01T14:35:28.804Z,34.54
2022-09-01T14:37:58.970Z,34.05
2022-09-01T14:40:29.394Z,33.85
2022-09-01T14:42:57.823Z,34.46
2022-09-01T14:45:28.778Z,33.24
2022-09-01T14:48:01.584Z,29.88
2022-09-01T14:50:32.575Z,24.98
2022-09-01T14:53:02.650Z,22.81
2022-09-01T14:55:32.670Z,21.48
2022-09-01T14:58:01.393Z,22.38
2022-09-01T15:00:31.711Z,20.90
2022-09-01T15:03:01.176Z,20.29
2022-09-01T15:05:29.292Z,22.17
2022-09-01T15:08:08.592Z,22.29
2022-09-01T15:10:36.767Z,21.21
2022-09-01T15:13:05.219Z,21.54
2022-09-01T15:15:33.802Z,21.30
2022-09-01T15:18:03.172Z,21.47
2022-09-01T15:20:46.414Z,22.00
2022-09-01T15:23:16.371Z,21.75
2022-09-01T15:25:44.706Z,21.04
2022-09-01T15:28:13.421Z,21.93
2022-09-01T15:30:43.977Z,21.82
2022-09-01T15:33:15.739Z,23.51
2022-09-01T15:35:44.938Z,26.43
2022-09-01T15:38:17.947Z,29.51
2022-09-01T15:40:55.462Z,30.80
2022-09-01T15:43:27.435Z,31.46
2022-09-01T15:45:58.369Z,31.97
2022-09-01T15:48:29.630Z,31.78
2022-09-01T15:51:27.899Z,32.13
2022-09-01T15:53:58.712Z,32.34
2022-09-01T15:56:27.099Z,32.62
2022-09-01T15:59:02.657Z,32.54
2022-09-01T16:01:32.671Z,32.82
2022-09-01T16:04:02.343Z,33.01
2022-09-01T16:06:31.503Z,32.72
2022-09-01T16:08:59.649Z,32.76
2022-09-01T16:11:28.045Z,32.54
2022-09-01T16:13:57.012Z,33.44
2022-09-01T16:16:42.031Z,31.95
2022-09-01T16:19:25.124Z,32.16
2022-09-01T16:21:59.123Z,31.81
2022-09-01T16:24:27.501Z,31.93
2022-09-01T16:26:58.091Z,31.47
2022-09-01T16:29:35.517Z,31.02
2022-09-01T16:32:03.830Z,31.27
2022-09-01T16:34:34.710Z,32.30
2022-09-01T16:37:08.476Z,32.64
2022-09-01T16:39:42.444Z,33.50
2022-09-01T16:42:22.296Z,33.96
2022-09-01T16:45:01.175Z,34.43
2022-09-01T16:47:41.879Z,34.42
2022-09-01T16:50:20.584Z,34.54
2022-09-01T16:53:05.668Z,34.69
2022-09-01T16:55:42.149Z,34.76
2022-09-01T16:58:21.489Z,34.92
2022-09-01T17:01:02.195Z,34.91
2022-09-01T17:03:43.115Z,34.75
2022-09-01T17:06:21.835Z,35.03
2022-09-01T17:08:54.926Z,35.30
2022-09-01T17:11:34.030Z,35.46
2022-09-01T17:14:04.149Z,35.50
2022-09-01T17:16:37.220Z,35.54
2022-09-01T17:19:07.944Z,35.61
2022-09-01T17:21:45.972Z,35.75
2022-09-01T17:24:30.207Z,35.76
2022-09-01T17:27:07.883Z,36.32
2022-09-01T17:29:44.963Z,36.59
2022-09-01T17:32:35.822Z,36.48
2022-09-01T17:35:15.091Z,36.77
2022-09-01T17:38:03.776Z,36.84
2022-09-01T17:40:50.358Z,37.58
2022-09-01T17:43:26.670Z,37.77
2022-09-01T17:46:04.419Z,38.06
2022-09-01T17:48:40.913Z,38.30
2022-09-01T17:51:13.832Z,38.89
2022-09-01T17:53:52.976Z,39.59
2022-09-01T17:56:34.827Z,41.02
2022-09-01T17:59:11.545Z,41.53
2022-09-01T18:01:47.204Z,40.99
2022-09-01T18:04:36.089Z,41.62
2022-09-01T18:07:10.894Z,41.45
2022-09-01T18:09:44.477Z,42.07
2022-09-01T18:12:18.632Z,42.59
2022-09-01T18:14:57.810Z,43.13
2022-09-01T18:17:31.421Z,42.68
2022-09-01T18:20:08.037Z,42.22
2022-09-01T18:22:43.086Z,42.94
2022-09-01T18:25:19.473Z,43.57
2022-09-01T18:27:48.038Z,43.29
2022-09-01T18:30:26.185Z,44.43
2022-09-01T18:33:15.010Z,44.96
2022-09-01T18:35:47.921Z,45.29
2022-09-01T18:38:35.484Z,45.79
2022-09-01T18:41:16.649Z,45.93
2022-09-01T18:43:49.739Z,45.72
2022-09-01T18:46:24.055Z,46.26
2022-09-01T18:49:03.412Z,46.59
2022-09-01T18:51:47.696Z,47.11
2022-09-01T18:54:19.627Z,47.46
2022-09-01T18:56:56.318Z,47.41
2022-09-01T18:59:40.290Z,47.61
2022-09-01T19:02:23.798Z,47.82
2022-09-01T19:04:58.353Z,47.34
2022-09-01T19:07:36.822Z,47.01
2022-09-01T19:10:16.291Z,46.34
2022-09-01T19:12:55.021Z,45.54
2022-09-01T19:15:33.122Z,46.17
2022-09-01T19:18:16.267Z,44.93
2022-09-01T19:20:51.262Z,45.77
2022-09-01T19:23:26.699Z,46.59
2022-09-01T19:26:03.192Z,47.20
2022-09-01T19:28:43.407Z,47.57
2022-09-01T19:31:27.073Z,48.10
2022-09-01T19:33:57.541Z,48.32
2022-09-01T19:36:34.522Z,48.90
2022-09-01T19:39:02.498Z,48.79
2022-09-01T19:41:35.753Z,49.19
2022-09-01T19:44:12.810Z,48.78
2022-09-01T19:46:47.051Z,48.79
2022-09-01T19:49:24.694Z,49.21
2022-09-01T19:51:58.430Z,49.34
2022-09-01T19:54:34.880Z,49.33
2022-09-01T19:57:07.767Z,49.52
2022-09-01T19:59:48.472Z,49.98
2022-09-01T20:02:27.815Z,50.05
2022-09-01T20:05:04.343Z,49.53
2022-09-01T20:07:37.740Z,50.19
2022-09-01T20:10:20.031Z,50.40
2022-09-01T20:12:55.238Z,50.27
2022-09-01T20:15:32.077Z,50.26
2022-09-01T20:18:04.927Z,50.82
2022-09-01T20:20:40.107Z,51.18
2022-09-01T20:23:12.953Z,51.51
2022-09-01T20:25:47.373Z,51.29
2022-09-01T20:28:28.362Z,51.44
2022-09-01T20:31:03.108Z,51.78
2022-09-01T20:33:38.177Z,50.88
2022-09-01T20:36:12.050Z,51.01
2022-09-01T20:39:05.587Z,51.09
2022-09-01T20:41:39.823Z,51.23
2022-09-01T20:44:13.545Z,50.80
2022-09-01T20:46:42.954Z,50.97
2022-09-01T20:49:17.039Z,49.82
2022-09-01T20:51:53.128Z,50.27
2022-09-01T20:54:30.828Z,50.88
2022-09-01T20:57:09.775Z,50.38
2022-09-01T20:59:46.365Z,51.23
2022-09-01T21:02:29.622Z,51.09
2022-09-01T21:05:06.399Z,50.34
2022-09-01T21:07:38.033Z,50.00
2022-09-01T21:10:13.085Z,49.79
2022-09-01T21:12:51.719Z,49.58
2022-09-01T21:15:30.908Z,48.71
2022-09-01T21:18:12.993Z,49.41
2022-09-01T21:20:57.595Z,49.53
2022-09-01T21:23:26.375Z,49.26
2022-09-01T21:25:54.453Z,48.90
2022-09-01T21:28:26.372Z,48.41
2022-09-01T21:30:57.140Z,48.22
2022-09-01T21:33:30.145Z,47.95
2022-09-01T21:35:58.876Z,48.31
2022-09-01T21:38:27.167Z,48.60
2022-09-01T21:40:55.653Z,48.57
2022-09-01T21:43:28.252Z,48.77
2022-09-01T21:45:56.390Z,48.63
2022-09-01T21:48:26.416Z,48.71
2022-09-01T21:50:54.416Z,48.74
2022-09-01T21:53:22.409Z,48.91
2022-09-01T21:55:50.346Z,49.07
2022-09-01T21:58:18.681Z,49.47
2022-09-01T22:00:48.321Z,49.85
2022-09-01T22:03:16.618Z,50.08
2022-09-01T22:05:45.936Z,50.23
2022-09-01T22:08:17.142Z,50.76
2022-09-01T22:10:48.630Z,50.50
2022-09-01T22:13:17.465Z,50.37
2022-09-01T22:15:47.184Z,51.05
2022-09-01T22:18:15.837Z,52.35
2022-09-01T22:20:46.191Z,52.70
2022-09-01T22:23:15.193Z,52.69
2022-09-01T22:25:45.494Z,52.57
2022-09-01T22:28:14.335Z,53.06
2022-09-01T22:30:46.460Z,53.32
2022-09-01T22:33:15.698Z,53.91
2022-09-01T22:35:47.433Z,53.89
2022-09-01T22:38:17.190Z,54.35
2022-09-01T22:40:47.020Z,54.46
2022-09-01T22:43:18.094Z,55.01
2022-09-01T22:45:55.208Z,55.41
2022-09-01T22:48:26.971Z,55.36
2022-09-01T22:51:34.007Z,55.38
2022-09-01T22:54:03.718Z,55.21
2022-09-01T22:56:34.140Z,55.45
2022-09-01T22:59:04.434Z,55.76
2022-09-01T23:01:36.230Z,56.19
2022-09-01T23:04:06.542Z,56.55
2022-09-01T23:06:39.781Z,56.60
2022-09-01T23:09:10.156Z,56.84
2022-09-01T23:11:38.459Z,56.78
2022-09-01T23:14:06.736Z,56.88
2022-09-01T23:16:35.193Z,56.85
2022-09-01T23:19:05.820Z,57.01
2022-09-01T23:21:37.334Z,56.52
2022-09-01T23:24:06.574Z,56.86
2022-09-01T23:26:34.911Z,56.25
2022-09-01T23:29:04.211Z,56.45
2022-09-01T23:31:34.650Z,56.54
2022-09-01T23:34:02.849Z,56.77
2022-09-01T23:36:31.045Z,56.80
2022-09-01T23:39:00.631Z,57.25
2022-09-01T23:41:32.289Z,57.13
2022-09-01T23:44:02.810Z,57.45
2022-09-01T23:46:32.650Z,57.63
2022-09-01T23:49:00.851Z,57.48
2022-09-01T23:51:29.095Z,57.21
2022-09-01T23:53:57.732Z,56.61
2022-09-01T23:56:29.160Z,56.86
2022-09-01T23:58:57.703Z,56.89
